sensor_id;sensor_type;location;lat;lon;timestamp;pressure;altitude;pressure_sealevel;temperature;humidity
29879;BME280;16752;53.364;-1.488;2023-05-09T00:02:26;99998.31;;;21.91;47.44
29879;BME280;16752;53.364;-1.488;2023-05-09T00:05:12;99936.41;;;21.81;46.75
29879;BME280;16752;53.364;-1.488;2023-05-09T00:07:57;99991.97;;;22.22;46.46
29879;BME280;16752;53.364;-1.488;2023-05-09T00:10:41;100015.47;;;21.74;47.24
29879;BME280;16752;53.364;-1.488;2023-05-09T00:13:25;100043.94;;;22.11;47.14
29879;BME280;16752;53.364;-1.488;2023-05-09T00:16:09;99995.34;;;22.01;46.64
29879;BME280;16752;53.364;-1.488;2023-05-09T00:18:54;100004.47;;;21.92;46.98
29879;BME280;16752;53.364;-1.488;2023-05-09T00:21:38;100029.97;;;22.39;46.17
29879;BME280;16752;53.364;-1.488;2023-05-09T00:24:22;99932.19;;;21.72;46.42
29879;BME280;16752;53.364;-1.488;2023-05-09T00:27:06;100011.09;;;21.58;47.70
29879;BME280;16752;53.364;-1.488;2023-05-09T00:29:51;99975.59;;;22.10;46.19
29879;BME280;16752;53.364;-1.488;2023-05-09T00:32:35;99996.94;;;22.25;46.43
29879;BME280;16752;53.364;-1.488;2023-05-09T00:35:19;99980.47;;;22.21;46.14
29879;BME280;16752;53.364;-1.488;2023-05-09T00:38:03;99897.78;;;21.77;46.27
29879;BME280;16752;53.364;-1.488;2023-05-09T00:40:47;99907.63;;;21.77;46.34
29879;BME280;16752;53.364;-1.488;2023-05-09T00:43:31;99911.88;;;21.71;46.27
29879;BME280;16752;53.364;-1.488;2023-05-09T00:46:15;99946.97;;;21.89;46.44
29879;BME280;16752;53.364;-1.488;2023-05-09T00:49:00;99906.69;;;21.55;46.78
29879;BME280;16752;53.364;-1.488;2023-05-09T00:51:45;99980.38;;;22.00;46.45
29879;BME280;16752;53.364;-1.488;2023-05-09T00:54:30;99975.38;;;21.82;47.00
29879;BME280;16752;53.364;-1.488;2023-05-09T00:57:15;99935.16;;;21.40;47.21
29879;BME280;16752;53.364;-1.488;2023-05-09T01:00:00;99950.97;;;21.41;47.42
29879;BME280;16752;53.364;-1.488;2023-05-09T01:02:49;99899.53;;;21.18;47.08
29879;BME280;16752;53.364;-1.488;2023-05-09T01:06:04;99914.28;;;21.28;47.29
29879;BME280;16752;53.364;-1.488;2023-05-09T01:08:58;99939.75;;;21.46;47.05
29879;BME280;16752;53.364;-1.488;2023-05-09T01:15:35;99943.69;;;21.35;47.23
29879;BME280;16752;53.364;-1.488;2023-05-09T01:21:35;99940.31;;;21.18;46.92
29879;BME280;16752;53.364;-1.488;2023-05-09T01:24:33;99916.78;;;21.07;47.11
29879;BME280;16752;53.364;-1.488;2023-05-09T01:27:36;99910.84;;;20.97;47.13
29879;BME280;16752;53.364;-1.488;2023-05-09T01:30:24;99903.94;;;20.88;47.24
29879;BME280;16752;53.364;-1.488;2023-05-09T01:33:09;99926.09;;;21.03;47.53
29879;BME280;16752;53.364;-1.488;2023-05-09T01:36:03;99859.22;;;20.60;47.18
29879;BME280;16752;53.364;-1.488;2023-05-09T01:38:50;99829.44;;;20.34;47.50
29879;BME280;16752;53.364;-1.488;2023-05-09T01:41:36;99873.03;;;20.64;47.07
29879;BME280;16752;53.364;-1.488;2023-05-09T01:44:21;99839.91;;;20.43;47.40
29879;BME280;16752;53.364;-1.488;2023-05-09T01:47:07;99833.00;;;20.26;47.19
29879;BME280;16752;53.364;-1.488;2023-05-09T01:49:52;99867.91;;;20.54;47.12
29879;BME280;16752;53.364;-1.488;2023-05-09T01:52:39;99934.09;;;20.80;47.53
29879;BME280;16752;53.364;-1.488;2023-05-09T01:55:30;99885.16;;;20.66;46.98
29879;BME280;16752;53.364;-1.488;2023-05-09T01:58:17;99913.25;;;20.69;47.40
29879;BME280;16752;53.364;-1.488;2023-05-09T02:01:03;99855.69;;;20.37;47.45
29879;BME280;16752;53.364;-1.488;2023-05-09T02:03:50;99881.22;;;20.54;47.28
29879;BME280;16752;53.364;-1.488;2023-05-09T02:06:35;99940.56;;;20.86;47.42
29879;BME280;16752;53.364;-1.488;2023-05-09T02:09:20;99855.03;;;20.35;47.29
29879;BME280;16752;53.364;-1.488;2023-05-09T02:12:04;99899.50;;;20.57;47.66
29879;BME280;16752;53.364;-1.488;2023-05-09T02:14:49;99918.84;;;20.74;47.59
29879;BME280;16752;53.364;-1.488;2023-05-09T02:17:33;99904.00;;;20.80;47.13
29879;BME280;16752;53.364;-1.488;2023-05-09T02:20:18;99850.91;;;20.32;47.27
29879;BME280;16752;53.364;-1.488;2023-05-09T02:23:02;99889.19;;;20.54;47.64
29879;BME280;16752;53.364;-1.488;2023-05-09T02:25:46;99828.84;;;20.24;47.80
29879;BME280;16752;53.364;-1.488;2023-05-09T02:28:30;99877.16;;;20.43;48.06
29879;BME280;16752;53.364;-1.488;2023-05-09T02:31:16;99846.47;;;20.25;47.94
29879;BME280;16752;53.364;-1.488;2023-05-09T02:34:03;99930.97;;;20.77;47.98
29879;BME280;16752;53.364;-1.488;2023-05-09T02:36:48;99895.53;;;20.53;47.93
29879;BME280;16752;53.364;-1.488;2023-05-09T02:39:33;99921.63;;;20.81;48.20
29879;BME280;16752;53.364;-1.488;2023-05-09T02:42:20;99843.22;;;20.37;48.09
29879;BME280;16752;53.364;-1.488;2023-05-09T02:45:05;99843.56;;;20.42;48.30
29879;BME280;16752;53.364;-1.488;2023-05-09T02:47:50;99895.81;;;20.81;48.34
29879;BME280;16752;53.364;-1.488;2023-05-09T02:50:34;99903.88;;;20.96;48.08
29879;BME280;16752;53.364;-1.488;2023-05-09T02:53:21;99892.19;;;20.82;48.42
29879;BME280;16752;53.364;-1.488;2023-05-09T02:56:05;99840.94;;;19.64;50.19
29879;BME280;16752;53.364;-1.488;2023-05-09T02:58:48;99832.31;;;20.55;47.83
29879;BME280;16752;53.364;-1.488;2023-05-09T03:01:34;99915.59;;;20.87;48.14
29879;BME280;16752;53.364;-1.488;2023-05-09T03:04:19;99830.44;;;20.41;48.32
29879;BME280;16752;53.364;-1.488;2023-05-09T03:07:02;99788.19;;;19.84;48.66
29879;BME280;16752;53.364;-1.488;2023-05-09T03:09:46;99842.44;;;20.83;47.40
29879;BME280;16752;53.364;-1.488;2023-05-09T03:12:30;99824.56;;;20.14;48.53
29879;BME280;16752;53.364;-1.488;2023-05-09T03:15:14;99810.38;;;20.53;47.34
29879;BME280;16752;53.364;-1.488;2023-05-09T03:17:59;99894.00;;;19.17;52.33
29879;BME280;16752;53.364;-1.488;2023-05-09T03:20:43;99903.69;;;20.97;47.70
29879;BME280;16752;53.364;-1.488;2023-05-09T03:23:26;99857.03;;;20.41;48.08
29879;BME280;16752;53.364;-1.488;2023-05-09T03:26:10;99844.50;;;19.88;49.24
29879;BME280;16752;53.364;-1.488;2023-05-09T03:28:54;99848.72;;;20.82;47.04
29879;BME280;16752;53.364;-1.488;2023-05-09T03:31:38;99844.31;;;19.89;49.01
29879;BME280;16752;53.364;-1.488;2023-05-09T03:34:22;99831.50;;;20.01;49.06
29879;BME280;16752;53.364;-1.488;2023-05-09T03:37:06;99834.72;;;21.02;46.26
29879;BME280;16752;53.364;-1.488;2023-05-09T03:39:50;99898.03;;;21.38;46.64
29879;BME280;16752;53.364;-1.488;2023-05-09T03:42:34;99806.13;;;21.04;46.33
29879;BME280;16752;53.364;-1.488;2023-05-09T03:45:18;99829.56;;;21.24;45.71
29879;BME280;16752;53.364;-1.488;2023-05-09T03:48:02;99899.06;;;21.52;46.30
29879;BME280;16752;53.364;-1.488;2023-05-09T03:50:47;99873.13;;;21.46;46.02
29879;BME280;16752;53.364;-1.488;2023-05-09T03:53:32;99825.13;;;21.16;46.50
29879;BME280;16752;53.364;-1.488;2023-05-09T03:56:15;99896.94;;;21.62;46.45
29879;BME280;16752;53.364;-1.488;2023-05-09T03:58:59;99824.75;;;21.19;46.68
29879;BME280;16752;53.364;-1.488;2023-05-09T04:01:43;99828.72;;;21.09;46.51
29879;BME280;16752;53.364;-1.488;2023-05-09T04:04:28;99819.34;;;21.13;46.68
29879;BME280;16752;53.364;-1.488;2023-05-09T04:07:12;99863.47;;;21.45;46.46
29879;BME280;16752;53.364;-1.488;2023-05-09T04:09:56;99850.72;;;21.40;46.64
29879;BME280;16752;53.364;-1.488;2023-05-09T04:12:40;99886.38;;;20.79;48.28
29879;BME280;16752;53.364;-1.488;2023-05-09T04:15:25;99800.84;;;20.59;47.47
29879;BME280;16752;53.364;-1.488;2023-05-09T04:18:09;99885.16;;;21.42;46.38
29879;BME280;16752;53.364;-1.488;2023-05-09T04:20:53;99868.47;;;21.10;47.39
29879;BME280;16752;53.364;-1.488;2023-05-09T04:23:36;99817.28;;;21.00;46.42
29879;BME280;16752;53.364;-1.488;2023-05-09T04:26:22;99890.50;;;21.42;46.56
29879;BME280;16752;53.364;-1.488;2023-05-09T04:29:07;99893.72;;;21.37;46.71
29879;BME280;16752;53.364;-1.488;2023-05-09T04:31:51;99796.34;;;20.82;46.63
29879;BME280;16752;53.364;-1.488;2023-05-09T04:34:35;99881.59;;;21.34;46.33
29879;BME280;16752;53.364;-1.488;2023-05-09T04:37:19;99795.47;;;20.67;47.07
29879;BME280;16752;53.364;-1.488;2023-05-09T04:40:04;99837.97;;;20.75;47.28
29879;BME280;16752;53.364;-1.488;2023-05-09T04:42:48;99833.84;;;20.72;47.23
29879;BME280;16752;53.364;-1.488;2023-05-09T04:45:32;99797.72;;;20.55;47.08
29879;BME280;16752;53.364;-1.488;2023-05-09T04:48:16;99834.09;;;20.86;47.43
29879;BME280;16752;53.364;-1.488;2023-05-09T04:51:01;99786.94;;;20.71;46.96
29879;BME280;16752;53.364;-1.488;2023-05-09T04:53:45;99864.94;;;20.95;47.74
29879;BME280;16752;53.364;-1.488;2023-05-09T04:56:29;99796.81;;;20.86;47.36
29879;BME280;16752;53.364;-1.488;2023-05-09T04:59:13;99799.66;;;20.84;47.56
29879;BME280;16752;53.364;-1.488;2023-05-09T05:01:57;99819.91;;;20.70;47.90
29879;BME280;16752;53.364;-1.488;2023-05-09T05:04:40;99824.91;;;21.26;46.87
29879;BME280;16752;53.364;-1.488;2023-05-09T05:07:24;99819.56;;;21.41;46.48
29879;BME280;16752;53.364;-1.488;2023-05-09T05:10:09;99873.53;;;21.72;46.64
29879;BME280;16752;53.364;-1.488;2023-05-09T05:12:53;99816.81;;;21.49;46.56
29879;BME280;16752;53.364;-1.488;2023-05-09T05:15:37;99818.53;;;21.71;46.50
29879;BME280;16752;53.364;-1.488;2023-05-09T05:18:21;99864.84;;;22.00;46.57
29879;BME280;16752;53.364;-1.488;2023-05-09T05:21:05;99855.56;;;20.84;48.51
29879;BME280;16752;53.364;-1.488;2023-05-09T05:23:49;99805.97;;;21.50;46.34
29879;BME280;16752;53.364;-1.488;2023-05-09T05:26:33;99877.06;;;22.23;45.96
29879;BME280;16752;53.364;-1.488;2023-05-09T05:29:18;99848.41;;;21.66;46.08
29879;BME280;16752;53.364;-1.488;2023-05-09T05:32:03;99845.28;;;21.78;46.15
29879;BME280;16752;53.364;-1.488;2023-05-09T05:34:47;99842.81;;;21.76;45.66
29879;BME280;16752;53.364;-1.488;2023-05-09T05:37:31;99828.78;;;22.04;45.09
29879;BME280;16752;53.364;-1.488;2023-05-09T05:40:15;99803.25;;;21.94;45.50
29879;BME280;16752;53.364;-1.488;2023-05-09T05:42:59;99811.78;;;22.05;45.10
29879;BME280;16752;53.364;-1.488;2023-05-09T05:45:43;99821.13;;;21.50;45.87
29879;BME280;16752;53.364;-1.488;2023-05-09T05:48:26;99829.22;;;21.42;46.43
29879;BME280;16752;53.364;-1.488;2023-05-09T05:51:10;99858.78;;;22.42;44.70
29879;BME280;16752;53.364;-1.488;2023-05-09T05:53:54;99806.06;;;22.08;45.03
29879;BME280;16752;53.364;-1.488;2023-05-09T05:56:39;99771.72;;;21.69;44.22
29879;BME280;16752;53.364;-1.488;2023-05-09T05:59:23;99806.03;;;22.22;44.21
29879;BME280;16752;53.364;-1.488;2023-05-09T06:02:07;99841.88;;;22.56;43.66
29879;BME280;16752;53.364;-1.488;2023-05-09T06:04:51;99822.34;;;22.55;43.78
29879;BME280;16752;53.364;-1.488;2023-05-09T06:07:35;99732.00;;;21.08;45.36
29879;BME280;16752;53.364;-1.488;2023-05-09T06:10:19;99787.53;;;22.21;44.25
29879;BME280;16752;53.364;-1.488;2023-05-09T06:13:03;99814.47;;;22.26;44.03
29879;BME280;16752;53.364;-1.488;2023-05-09T06:15:46;99790.34;;;21.98;43.94
29879;BME280;16752;53.364;-1.488;2023-05-09T06:18:30;99796.13;;;22.16;43.88
29879;BME280;16752;53.364;-1.488;2023-05-09T06:21:14;99829.09;;;22.51;43.93
29879;BME280;16752;53.364;-1.488;2023-05-09T06:23:58;99803.56;;;22.21;43.52
29879;BME280;16752;53.364;-1.488;2023-05-09T06:26:43;99771.91;;;22.18;44.16
29879;BME280;16752;53.364;-1.488;2023-05-09T06:29:27;99777.38;;;22.31;43.60
29879;BME280;16752;53.364;-1.488;2023-05-09T06:32:11;99836.09;;;22.52;43.83
29879;BME280;16752;53.364;-1.488;2023-05-09T06:34:55;99815.25;;;22.63;43.55
29879;BME280;16752;53.364;-1.488;2023-05-09T06:37:39;99787.94;;;22.03;44.37
29879;BME280;16752;53.364;-1.488;2023-05-09T06:40:23;99789.41;;;22.91;43.13
29879;BME280;16752;53.364;-1.488;2023-05-09T06:43:07;99841.81;;;23.20;42.88
29879;BME280;16752;53.364;-1.488;2023-05-09T06:45:51;99812.63;;;22.91;42.03
29879;BME280;16752;53.364;-1.488;2023-05-09T06:48:35;99806.53;;;22.33;42.96
29879;BME280;16752;53.364;-1.488;2023-05-09T06:51:19;99837.72;;;22.75;42.89
29879;BME280;16752;53.364;-1.488;2023-05-09T06:54:04;99752.91;;;22.49;41.88
29879;BME280;16752;53.364;-1.488;2023-05-09T06:56:48;99845.09;;;22.73;42.41
29879;BME280;16752;53.364;-1.488;2023-05-09T06:59:32;99849.41;;;23.51;41.46
29879;BME280;16752;53.364;-1.488;2023-05-09T07:02:16;99819.25;;;23.57;40.04
29879;BME280;16752;53.364;-1.488;2023-05-09T07:05:00;99814.78;;;23.71;40.35
29879;BME280;16752;53.364;-1.488;2023-05-09T07:07:44;99855.66;;;24.06;39.89
29879;BME280;16752;53.364;-1.488;2023-05-09T07:10:28;99838.97;;;24.04;39.40
29879;BME280;16752;53.364;-1.488;2023-05-09T07:13:13;99843.13;;;23.31;40.67
29879;BME280;16752;53.364;-1.488;2023-05-09T07:16:00;99830.81;;;23.64;40.33
29879;BME280;16752;53.364;-1.488;2023-05-09T07:18:44;99865.72;;;23.97;40.04
29879;BME280;16752;53.364;-1.488;2023-05-09T07:21:28;99772.69;;;23.10;40.88
29879;BME280;16752;53.364;-1.488;2023-05-09T07:24:12;99836.50;;;22.99;40.51
29879;BME280;16752;53.364;-1.488;2023-05-09T07:26:56;99868.19;;;23.30;40.77
29879;BME280;16752;53.364;-1.488;2023-05-09T07:29:40;99832.09;;;22.84;41.57
29879;BME280;16752;53.364;-1.488;2023-05-09T07:32:24;99855.03;;;23.28;40.78
29879;BME280;16752;53.364;-1.488;2023-05-09T07:35:07;99809.13;;;23.53;39.59
29879;BME280;16752;53.364;-1.488;2023-05-09T07:37:51;99855.84;;;23.98;39.55
29879;BME280;16752;53.364;-1.488;2023-05-09T07:40:36;99807.88;;;23.55;39.25
29879;BME280;16752;53.364;-1.488;2023-05-09T07:43:21;99821.25;;;23.21;39.85
29879;BME280;16752;53.364;-1.488;2023-05-09T07:46:05;99819.75;;;23.11;40.70
29879;BME280;16752;53.364;-1.488;2023-05-09T07:48:49;99846.97;;;23.91;38.36
29879;BME280;16752;53.364;-1.488;2023-05-09T07:51:33;99812.09;;;23.64;38.05
29879;BME280;16752;53.364;-1.488;2023-05-09T07:54:17;99851.94;;;23.25;40.81
29879;BME280;16752;53.364;-1.488;2023-05-09T07:57:01;99860.03;;;24.20;38.54
29879;BME280;16752;53.364;-1.488;2023-05-09T07:59:45;99831.69;;;24.46;37.79
29879;BME280;16752;53.364;-1.488;2023-05-09T08:02:30;99796.47;;;24.49;37.25
29879;BME280;16752;53.364;-1.488;2023-05-09T08:05:14;99807.22;;;24.88;37.49
29879;BME280;16752;53.364;-1.488;2023-05-09T08:07:58;99813.19;;;24.90;35.98
29879;BME280;16752;53.364;-1.488;2023-05-09T08:10:42;99825.78;;;23.96;38.25
29879;BME280;16752;53.364;-1.488;2023-05-09T08:13:26;99808.84;;;24.50;37.55
29879;BME280;16752;53.364;-1.488;2023-05-09T08:16:10;99847.63;;;24.06;38.84
29879;BME280;16752;53.364;-1.488;2023-05-09T08:18:57;99816.50;;;25.06;36.54
29879;BME280;16752;53.364;-1.488;2023-05-09T08:21:41;99781.66;;;23.31;38.64
29879;BME280;16752;53.364;-1.488;2023-05-09T08:24:25;99818.13;;;24.54;37.01
29879;BME280;16752;53.364;-1.488;2023-05-09T08:27:09;99789.28;;;24.95;36.40
29879;BME280;16752;53.364;-1.488;2023-05-09T08:29:53;99790.50;;;24.33;37.28
29879;BME280;16752;53.364;-1.488;2023-05-09T08:32:37;99836.44;;;24.30;38.11
29879;BME280;16752;53.364;-1.488;2023-05-09T08:35:21;99787.41;;;25.16;36.88
29879;BME280;16752;53.364;-1.488;2023-05-09T08:38:05;99801.97;;;25.59;36.59
29879;BME280;16752;53.364;-1.488;2023-05-09T08:40:49;99764.78;;;25.70;34.72
29879;BME280;16752;53.364;-1.488;2023-05-09T08:43:34;99766.88;;;25.54;35.03
29879;BME280;16752;53.364;-1.488;2023-05-09T08:46:23;99807.16;;;24.29;37.21
29879;BME280;16752;53.364;-1.488;2023-05-09T08:49:11;99808.56;;;26.08;35.48
29879;BME280;16752;53.364;-1.488;2023-05-09T08:51:58;99793.00;;;25.79;34.41
29879;BME280;16752;53.364;-1.488;2023-05-09T08:54:43;99756.09;;;26.44;33.45
29879;BME280;16752;53.364;-1.488;2023-05-09T08:57:27;99780.50;;;25.53;34.05
29879;BME280;16752;53.364;-1.488;2023-05-09T09:00:11;99795.72;;;23.87;37.58
29879;BME280;16752;53.364;-1.488;2023-05-09T09:03:00;99785.50;;;25.43;34.67
29879;BME280;16752;53.364;-1.488;2023-05-09T09:05:45;99828.19;;;25.44;35.57
29879;BME280;16752;53.364;-1.488;2023-05-09T09:08:30;99780.72;;;26.03;34.83
29879;BME280;16752;53.364;-1.488;2023-05-09T09:11:20;99832.84;;;26.27;34.20
29879;BME280;16752;53.364;-1.488;2023-05-09T09:14:10;99809.66;;;25.94;34.65
29879;BME280;16752;53.364;-1.488;2023-05-09T09:16:56;99796.97;;;26.14;35.15
29879;BME280;16752;53.364;-1.488;2023-05-09T09:19:43;99759.09;;;27.22;32.75
29879;BME280;16752;53.364;-1.488;2023-05-09T09:22:33;99806.63;;;27.47;32.88
29879;BME280;16752;53.364;-1.488;2023-05-09T09:25:18;99765.16;;;25.09;35.69
29879;BME280;16752;53.364;-1.488;2023-05-09T09:28:03;99809.78;;;25.54;34.92
29879;BME280;16752;53.364;-1.488;2023-05-09T09:30:48;99812.75;;;24.41;35.95
29879;BME280;16752;53.364;-1.488;2023-05-09T09:33:34;99819.28;;;25.64;34.22
29879;BME280;16752;53.364;-1.488;2023-05-09T09:36:30;99819.47;;;26.13;33.29
29879;BME280;16752;53.364;-1.488;2023-05-09T09:39:19;99760.00;;;26.48;33.29
29879;BME280;16752;53.364;-1.488;2023-05-09T09:42:09;99751.75;;;26.11;33.34
29879;BME280;16752;53.364;-1.488;2023-05-09T09:45:01;99800.34;;;27.89;32.09
29879;BME280;16752;53.364;-1.488;2023-05-09T09:47:47;99776.63;;;28.28;30.35
29879;BME280;16752;53.364;-1.488;2023-05-09T09:50:31;99739.97;;;28.27;29.19
29879;BME280;16752;53.364;-1.488;2023-05-09T09:53:19;99700.44;;;27.49;31.46
29879;BME280;16752;53.364;-1.488;2023-05-09T09:56:03;99772.47;;;27.47;31.62
29879;BME280;16752;53.364;-1.488;2023-05-09T09:58:47;99748.22;;;27.35;30.43
29879;BME280;16752;53.364;-1.488;2023-05-09T10:01:31;99692.59;;;26.74;30.73
29879;BME280;16752;53.364;-1.488;2023-05-09T10:04:21;99778.25;;;26.64;32.89
29879;BME280;16752;53.364;-1.488;2023-05-09T10:07:07;99725.22;;;26.78;31.99
29879;BME280;16752;53.364;-1.488;2023-05-09T10:09:53;99776.44;;;27.45;31.20
29879;BME280;16752;53.364;-1.488;2023-05-09T10:13:19;99674.94;;;27.52;32.07
29879;BME280;16752;53.364;-1.488;2023-05-09T10:16:07;99711.53;;;27.04;30.78
29879;BME280;16752;53.364;-1.488;2023-05-09T10:18:54;99750.38;;;27.63;30.71
29879;BME280;16752;53.364;-1.488;2023-05-09T10:21:56;99698.22;;;26.91;31.20
29879;BME280;16752;53.364;-1.488;2023-05-09T10:24:50;99776.34;;;29.30;28.34
29879;BME280;16752;53.364;-1.488;2023-05-09T10:27:35;99752.31;;;29.16;27.22
29879;BME280;16752;53.364;-1.488;2023-05-09T10:33:35;99753.25;;;28.52;29.96
29879;BME280;16752;53.364;-1.488;2023-05-09T10:36:21;99753.94;;;28.59;29.09
29879;BME280;16752;53.364;-1.488;2023-05-09T10:39:06;99756.28;;;28.02;29.78
29879;BME280;16752;53.364;-1.488;2023-05-09T10:41:50;99680.59;;;27.80;30.30
29879;BME280;16752;53.364;-1.488;2023-05-09T10:44:36;99708.97;;;27.64;29.84
29879;BME280;16752;53.364;-1.488;2023-05-09T10:47:23;99679.47;;;27.69;29.64
29879;BME280;16752;53.364;-1.488;2023-05-09T10:50:11;99663.19;;;26.79;31.89
29879;BME280;16752;53.364;-1.488;2023-05-09T10:55:56;99631.75;;;26.80;31.79
29879;BME280;16752;53.364;-1.488;2023-05-09T10:58:46;99738.13;;;27.13;33.03
29879;BME280;16752;53.364;-1.488;2023-05-09T11:01:35;99738.38;;;27.59;31.61
29879;BME280;16752;53.364;-1.488;2023-05-09T11:04:21;99708.38;;;27.44;31.95
29879;BME280;16752;53.364;-1.488;2023-05-09T11:07:25;99675.69;;;25.54;32.20
29879;BME280;16752;53.364;-1.488;2023-05-09T11:10:15;99726.06;;;28.12;31.16
29879;BME280;16752;53.364;-1.488;2023-05-09T11:13:00;99652.94;;;27.25;31.08
29879;BME280;16752;53.364;-1.488;2023-05-09T11:18:51;99708.38;;;26.14;31.61
29879;BME280;16752;53.364;-1.488;2023-05-09T11:21:36;99712.13;;;26.38;32.55
29879;BME280;16752;53.364;-1.488;2023-05-09T11:24:21;99624.19;;;26.52;32.69
29879;BME280;16752;53.364;-1.488;2023-05-09T11:27:22;99628.13;;;27.41;29.88
29879;BME280;16752;53.364;-1.488;2023-05-09T11:30:07;99713.63;;;28.29;30.10
29879;BME280;16752;53.364;-1.488;2023-05-09T11:32:54;99684.47;;;28.49;28.99
29879;BME280;16752;53.364;-1.488;2023-05-09T11:35:42;99703.09;;;27.97;30.85
29879;BME280;16752;53.364;-1.488;2023-05-09T11:38:39;99656.75;;;28.19;30.26
29879;BME280;16752;53.364;-1.488;2023-05-09T11:41:25;99609.78;;;27.50;29.96
29879;BME280;16752;53.364;-1.488;2023-05-09T11:44:14;99708.28;;;28.11;30.69
29879;BME280;16752;53.364;-1.488;2023-05-09T11:46:59;99639.75;;;27.83;29.50
29879;BME280;16752;53.364;-1.488;2023-05-09T11:49:44;99662.75;;;27.19;30.44
29879;BME280;16752;53.364;-1.488;2023-05-09T11:52:31;99714.66;;;27.38;30.72
29879;BME280;16752;53.364;-1.488;2023-05-09T11:55:17;99652.03;;;26.33;31.37
29879;BME280;16752;53.364;-1.488;2023-05-09T11:58:11;99652.34;;;25.93;32.67
29879;BME280;16752;53.364;-1.488;2023-05-09T12:00:59;99630.34;;;27.44;31.07
29879;BME280;16752;53.364;-1.488;2023-05-09T12:03:47;99640.31;;;27.25;31.34
29879;BME280;16752;53.364;-1.488;2023-05-09T12:06:32;99694.09;;;28.04;30.19
29879;BME280;16752;53.364;-1.488;2023-05-09T12:09:16;99669.34;;;28.37;28.67
29879;BME280;16752;53.364;-1.488;2023-05-09T12:12:10;99673.84;;;29.18;27.42
29879;BME280;16752;53.364;-1.488;2023-05-09T12:14:55;99617.88;;;28.85;26.62
29879;BME280;16752;53.364;-1.488;2023-05-09T12:17:42;99667.72;;;27.94;28.82
29879;BME280;16752;53.364;-1.488;2023-05-09T12:20:27;99678.44;;;29.06;26.53
29879;BME280;16752;53.364;-1.488;2023-05-09T12:23:16;99639.59;;;28.67;28.57
29879;BME280;16752;53.364;-1.488;2023-05-09T12:26:01;99641.97;;;27.56;28.81
29879;BME280;16752;53.364;-1.488;2023-05-09T12:28:49;99667.94;;;29.73;27.78
29879;BME280;16752;53.364;-1.488;2023-05-09T12:31:33;99611.69;;;29.70;26.76
29879;BME280;16752;53.364;-1.488;2023-05-09T12:34:21;99638.28;;;30.23;24.98
29879;BME280;16752;53.364;-1.488;2023-05-09T12:37:14;99690.06;;;28.83;26.53
29879;BME280;16752;53.364;-1.488;2023-05-09T12:40:12;99625.59;;;29.33;24.29
29879;BME280;16752;53.364;-1.488;2023-05-09T12:42:57;99615.41;;;29.24;25.56
29879;BME280;16752;53.364;-1.488;2023-05-09T12:45:43;99589.50;;;28.94;26.14
29879;BME280;16752;53.364;-1.488;2023-05-09T12:48:28;99632.41;;;29.64;24.78
29879;BME280;16752;53.364;-1.488;2023-05-09T12:51:17;99630.13;;;29.90;25.02
29879;BME280;16752;53.364;-1.488;2023-05-09T12:54:03;99551.75;;;28.82;26.09
29879;BME280;16752;53.364;-1.488;2023-05-09T12:56:47;99663.41;;;30.24;25.10
29879;BME280;16752;53.364;-1.488;2023-05-09T12:59:31;99584.31;;;30.11;24.02
29879;BME280;16752;53.364;-1.488;2023-05-09T13:02:16;99606.13;;;29.60;24.61
29879;BME280;16752;53.364;-1.488;2023-05-09T13:05:20;99578.63;;;29.46;24.79
29879;BME280;16752;53.364;-1.488;2023-05-09T13:08:09;99554.81;;;26.49;27.25
29879;BME280;16752;53.364;-1.488;2023-05-09T13:11:03;99657.13;;;28.81;26.30
29879;BME280;16752;53.364;-1.488;2023-05-09T13:13:53;99598.41;;;28.95;24.93
29879;BME280;16752;53.364;-1.488;2023-05-09T13:16:57;99653.16;;;30.09;25.29
29879;BME280;16752;53.364;-1.488;2023-05-09T13:19:41;99564.59;;;29.04;25.79
29879;BME280;16752;53.364;-1.488;2023-05-09T13:22:33;99619.00;;;28.25;25.40
29879;BME280;16752;53.364;-1.488;2023-05-09T13:25:20;99553.41;;;29.40;24.04
29879;BME280;16752;53.364;-1.488;2023-05-09T13:28:05;99560.75;;;30.07;23.64
29879;BME280;16752;53.364;-1.488;2023-05-09T13:30:49;99568.41;;;30.32;22.87
29879;BME280;16752;53.364;-1.488;2023-05-09T13:33:36;99567.56;;;30.48;24.16
29879;BME280;16752;53.364;-1.488;2023-05-09T13:36:22;99590.03;;;27.56;26.22
29879;BME280;16752;53.364;-1.488;2023-05-09T13:39:08;99556.88;;;27.85;26.78
29879;BME280;16752;53.364;-1.488;2023-05-09T13:41:53;99556.78;;;27.80;26.34
29879;BME280;16752;53.364;-1.488;2023-05-09T13:44:37;99551.47;;;28.55;27.20
29879;BME280;16752;53.364;-1.488;2023-05-09T13:47:33;99509.75;;;27.53;26.56
29879;BME280;16752;53.364;-1.488;2023-05-09T13:50:25;99667.13;;;28.69;27.17
29879;BME280;16752;53.364;-1.488;2023-05-09T13:53:09;99666.41;;;28.73;27.02
29879;BME280;16752;53.364;-1.488;2023-05-09T13:59:04;99575.28;;;28.99;25.32
29879;BME280;16752;53.364;-1.488;2023-05-09T14:01:51;99582.56;;;28.98;25.19
29879;BME280;16752;53.364;-1.488;2023-05-09T14:04:36;99563.88;;;28.68;25.15
29879;BME280;16752;53.364;-1.488;2023-05-09T14:07:26;99605.03;;;29.15;23.94
29879;BME280;16752;53.364;-1.488;2023-05-09T14:10:11;99657.88;;;29.85;24.22
29879;BME280;16752;53.364;-1.488;2023-05-09T14:12:56;99556.97;;;28.60;25.06
29879;BME280;16752;53.364;-1.488;2023-05-09T14:15:40;99598.47;;;29.40;24.83
29879;BME280;16752;53.364;-1.488;2023-05-09T14:18:27;99578.94;;;28.81;25.67
29879;BME280;16752;53.364;-1.488;2023-05-09T14:21:11;99593.59;;;28.97;24.49
29879;BME280;16752;53.364;-1.488;2023-05-09T14:26:42;99592.38;;;28.64;25.43
29879;BME280;16752;53.364;-1.488;2023-05-09T14:29:29;99611.75;;;29.01;25.15
29879;BME280;16752;53.364;-1.488;2023-05-09T14:32:14;99601.69;;;29.25;24.08
29879;BME280;16752;53.364;-1.488;2023-05-09T14:35:04;99620.72;;;28.67;26.36
29879;BME280;16752;53.364;-1.488;2023-05-09T14:37:48;99584.53;;;29.03;26.08
29879;BME280;16752;53.364;-1.488;2023-05-09T14:40:54;99662.84;;;30.38;24.12
29879;BME280;16752;53.364;-1.488;2023-05-09T14:43:47;99654.69;;;30.94;23.96
29879;BME280;16752;53.364;-1.488;2023-05-09T14:46:49;99645.91;;;30.82;23.69
29879;BME280;16752;53.364;-1.488;2023-05-09T14:49:36;99612.56;;;30.37;23.82
29879;BME280;16752;53.364;-1.488;2023-05-09T14:52:22;99549.53;;;29.81;24.26